3T5

Fayette Regional Air Center Airport

La Grange, Texas, USA
METAR K3T5 140655Z AUTO 30008G18KT 10SM OVC025 09/04 A2987 RMK AO2 T00870036
Observed Flight Rules
Dec-14 @ 06:55 UTC (47 minutes ago) Marginal Visual Flight Rules
Wind Visibility Clouds
300° at 8 knots
 Gusting to 18 knots
10 miles
  • Overcast at 2,500' AGL
Temperatures Readings
Current 9°C / 48°F
Dewpoint 4°C / 39°F
Humidity 71%
Altimeter 29.87" Hg
Pressure 1012 hPa
Elevation 99
METAR K3T5 140655Z AUTO 30008G18KT 10SM OVC025 09/04 A2987 RMK AO2 T00870036
Observed Flight Rules
Dec-14 @ 06:55 UTC
(47 minutes ago)
MVFR
Wind Visibility
300° at 8 knots
 Gusting to 18 knots
10 miles
Clouds
  • Overcast at 2,500' AGL
Temperature Dewpoint
9°C / 48°F 4°C / 39°F
Humidity Altimeter Pressure
71% 29.87" Hg 1012 hPa